Time;durP1;ratioP1;P1;durP2;ratioP2;P2;SDS_P1;SDS_P2;PMS_P1;PMS_P2;Temp;Humidity;BMP_temperature;BMP_pressure;BME280_temperature;BME280_humidity;BME280_pressure;Samples;Min_cycle;Max_cycle;Signal;HPM_P1;HPM_P2
2021/11/19 00:01:53;;;;;;;103.80;49.30;;;1.30;99.90;;;;;;5076336;28;20031;-87
2021/11/19 00:04:19;;;;;;;100.70;48.90;;;1.30;99.90;;;;;;5076011;28;20035;-87
2021/11/19 00:06:45;;;;;;;112.22;51.83;;;1.40;99.90;;;;;;5076109;28;20031;-87
2021/11/19 00:09:11;;;;;;;95.35;46.20;;;1.40;99.90;;;;;;5076005;28;20115;-87
2021/11/19 00:11:40;;;;;;;94.18;40.60;;;1.50;99.90;;;;;;5089571;28;20028;-87
2021/11/19 00:14:07;;;;;;;91.55;42.83;;;1.60;99.90;;;;;;5095710;28;20436;-88
2021/11/19 00:16:33;;;;;;;90.35;43.42;;;1.70;99.90;;;;;;5096284;28;20050;-87
2021/11/19 00:19:00;;;;;;;78.47;38.40;;;1.70;99.90;;;;;;5096068;28;20024;-88
2021/11/19 00:21:28;;;;;;;83.03;39.25;;;1.80;99.90;;;;;;5096364;28;20453;-87
2021/11/19 00:23:55;;;;;;;95.07;45.13;;;1.90;99.90;;;;;;5077299;28;20032;-88
2021/11/19 00:26:22;;;;;;;91.97;42.05;;;1.80;99.90;;;;;;5075558;28;20025;-87
2021/11/19 00:28:48;;;;;;;81.55;38.33;;;1.90;99.90;;;;;;5075812;28;20119;-87
2021/11/19 00:31:15;;;;;;;70.90;35.78;;;1.90;99.90;;;;;;5075654;28;20111;-87
2021/11/19 00:33:42;;;;;;;86.15;40.40;;;1.90;99.90;;;;;;5075512;28;20025;-87
2021/11/19 00:36:11;;;;;;;83.80;39.55;;;1.90;99.90;;;;;;5094458;28;20040;-87
2021/11/19 00:38:39;;;;;;;92.55;42.13;;;2.00;99.90;;;;;;5095516;28;20024;-87
2021/11/19 00:41:08;;;;;;;84.47;40.55;;;2.00;99.90;;;;;;5095908;28;20024;-87
2021/11/19 00:43:35;;;;;;;93.05;44.08;;;2.00;99.90;;;;;;5096694;28;20028;-87
2021/11/19 00:46:01;;;;;;;92.25;42.22;;;2.00;99.90;;;;;;5093145;28;20030;-87
2021/11/19 00:48:31;;;;;;;102.88;45.47;;;2.00;99.90;;;;;;5076224;28;20471;-87
2021/11/19 00:51:11;;;;;;;108.63;48.95;;;2.00;99.90;;;;;;5075628;28;20020;-87
2021/11/19 00:53:39;;;;;;;112.13;50.10;;;2.10;99.90;;;;;;5076054;28;20127;-87
2021/11/19 00:56:05;;;;;;;113.60;49.67;;;2.10;99.90;;;;;;5075628;28;20475;-87
2021/11/19 00:58:31;;;;;;;96.38;44.90;;;2.00;99.90;;;;;;5077140;28;20020;-87
2021/11/19 01:01:07;;;;;;;101.57;44.13;;;2.10;99.90;;;;;;5075027;28;20024;-87
2021/11/19 01:03:34;;;;;;;95.82;42.30;;;2.10;99.90;;;;;;5075054;28;20032;-87
2021/11/19 01:06:00;;;;;;;100.93;45.85;;;2.20;99.90;;;;;;5076262;28;20029;-87
2021/11/19 01:08:31;;;;;;;101.63;43.90;;;2.20;99.90;;;;;;5075128;28;20021;-87
2021/11/19 01:10:58;;;;;;;99.20;44.08;;;2.20;99.90;;;;;;5074770;28;20759;-87
2021/11/19 01:13:25;;;;;;;94.22;42.40;;;2.20;99.90;;;;;;5074827;28;20110;-87
2021/11/19 01:15:55;;;;;;;90.85;41.13;;;2.20;99.90;;;;;;5085914;28;20035;-87
2021/11/19 01:18:46;;;;;;;91.78;40.83;;;2.20;99.90;;;;;;5095001;28;20020;-87
2021/11/19 01:21:23;;;;;;;87.15;38.75;;;2.20;99.90;;;;;;5094832;28;20021;-87
2021/11/19 01:23:49;;;;;;;93.60;40.10;;;2.20;99.90;;;;;;5068412;28;20024;-87
2021/11/19 01:26:21;;;;;;;99.50;44.85;;;2.30;99.90;;;;;;5075464;28;20028;-87
2021/11/19 01:28:50;;;;;;;94.20;42.13;;;2.20;99.90;;;;;;5075085;28;20052;-88
2021/11/19 01:31:21;;;;;;;103.93;46.28;;;2.30;99.90;;;;;;5075700;28;20028;-87
2021/11/19 01:33:48;;;;;;;100.97;45.80;;;2.30;99.90;;;;;;5093031;28;20547;-87
2021/11/19 01:36:15;;;;;;;108.93;48.35;;;2.30;99.90;;;;;;5094504;28;20066;-87
2021/11/19 01:38:43;;;;;;;121.38;55.47;;;2.30;99.90;;;;;;5082008;28;20386;-87
2021/11/19 01:41:23;;;;;;;103.55;46.70;;;2.30;99.90;;;;;;5074305;28;20024;-87
2021/11/19 01:43:49;;;;;;;120.68;57.67;;;2.40;99.90;;;;;;5074498;28;20028;-88
2021/11/19 01:46:20;;;;;;;101.43;48.67;;;2.30;99.90;;;;;;5078516;28;20529;-88
2021/11/19 01:48:47;;;;;;;96.85;43.22;;;2.40;99.90;;;;;;5095575;28;20024;-88
2021/11/19 01:51:24;;;;;;;93.20;42.90;;;2.30;99.90;;;;;;5094307;28;20079;-87
2021/11/19 01:53:53;;;;;;;100.15;42.08;;;2.30;99.90;;;;;;5094211;28;20047;-88
2021/11/19 01:56:23;;;;;;;110.97;45.60;;;2.40;99.90;;;;;;5088983;28;20063;-88
2021/11/19 01:58:58;;;;;;;104.25;42.72;;;2.30;99.90;;;;;;5075214;28;20050;-88
2021/11/19 02:01:41;;;;;;;104.82;44.60;;;2.40;99.90;;;;;;5073813;28;20021;-88
2021/11/19 02:04:12;;;;;;;110.72;47.67;;;2.40;99.90;;;;;;5075061;28;20027;-88
2021/11/19 02:06:43;;;;;;;100.68;44.70;;;2.30;99.90;;;;;;5075003;28;20494;-87
2021/11/19 02:09:16;;;;;;;98.50;43.03;;;2.40;99.90;;;;;;5087519;28;20079;-87
2021/11/19 02:12:16;;;;;;;116.15;47.15;;;2.30;99.90;;;;;;5094329;28;20031;-88
2021/11/19 02:14:57;;;;;;;109.88;43.72;;;2.30;99.90;;;;;;5094158;28;20028;-88
2021/11/19 02:17:23;;;;;;;115.18;46.67;;;2.40;99.90;;;;;;5078418;28;20108;-88
2021/11/19 02:19:53;;;;;;;107.25;44.35;;;2.40;99.90;;;;;;5091343;28;20059;-87
2021/11/19 02:22:34;;;;;;;117.38;48.08;;;2.40;99.90;;;;;;5094072;28;20024;-88
2021/11/19 02:25:17;;;;;;;102.57;43.55;;;2.40;99.90;;;;;;5093923;28;20028;-87
2021/11/19 02:27:49;;;;;;;117.80;44.88;;;2.40;99.90;;;;;;5074799;28;20111;-87
2021/11/19 02:30:20;;;;;;;110.88;43.13;;;2.40;99.90;;;;;;5073523;28;20047;-87
2021/11/19 02:32:53;;;;;;;101.40;41.20;;;2.40;99.90;;;;;;5073637;28;20368;-87
2021/11/19 02:35:25;;;;;;;110.47;42.35;;;2.50;99.90;;;;;;5073363;28;20025;-87
2021/11/19 02:37:55;;;;;;;108.82;43.58;;;2.50;99.90;;;;;;5074274;28;20146;-87
2021/11/19 02:40:26;;;;;;;107.50;44.25;;;2.50;99.90;;;;;;5093956;28;20074;-87
2021/11/19 02:43:00;;;;;;;106.25;44.47;;;2.50;99.90;;;;;;5093711;28;20486;-87
2021/11/19 02:45:31;;;;;;;100.72;40.72;;;2.60;99.90;;;;;;5093571;28;20043;-87
2021/11/19 02:47:57;;;;;;;101.13;42.75;;;2.50;99.90;;;;;;5093666;28;20082;-87
2021/11/19 02:50:23;;;;;;;98.35;41.40;;;2.60;99.90;;;;;;5091534;28;20116;-87
2021/11/19 02:52:51;;;;;;;99.47;41.13;;;2.60;99.90;;;;;;5093566;28;20071;-87
2021/11/19 02:55:24;;;;;;;102.15;40.17;;;2.60;99.90;;;;;;5091510;28;20048;-88
2021/11/19 02:57:50;;;;;;;100.78;40.33;;;2.60;99.90;;;;;;5093465;28;20032;-88
2021/11/19 03:00:32;;;;;;;109.65;41.80;;;2.60;99.90;;;;;;5091537;28;20090;-88
2021/11/19 03:02:58;;;;;;;101.47;41.60;;;2.60;99.90;;;;;;5090014;28;20028;-88
2021/11/19 03:05:27;;;;;;;103.72;41.47;;;2.60;99.90;;;;;;5073551;28;20029;-88
2021/11/19 03:07:53;;;;;;;102.95;41.13;;;2.60;99.90;;;;;;5074324;28;20056;-88
2021/11/19 03:10:27;;;;;;;117.93;45.90;;;2.60;99.90;;;;;;5073116;28;20029;-88
2021/11/19 03:12:54;;;;;;;124.15;47.28;;;2.50;99.90;;;;;;5073432;28;20028;-88
2021/11/19 03:15:25;;;;;;;111.97;42.05;;;2.50;99.90;;;;;;5075906;28;20032;-88
2021/11/19 03:17:51;;;;;;;105.78;42.63;;;2.50;99.90;;;;;;5093346;28;20021;-88
2021/11/19 03:20:18;;;;;;;98.20;40.45;;;2.50;99.90;;;;;;5092044;28;20035;-88
2021/11/19 03:22:44;;;;;;;105.93;43.53;;;2.50;99.90;;;;;;5093193;28;20020;-88
2021/11/19 03:25:14;;;;;;;102.22;42.97;;;2.50;99.90;;;;;;5093116;28;20119;-88
2021/11/19 03:27:41;;;;;;;111.10;42.63;;;2.50;99.90;;;;;;5093288;28;20028;-88
2021/11/19 03:30:09;;;;;;;100.05;40.95;;;2.50;99.90;;;;;;5076295;28;20039;-87
2021/11/19 03:32:35;;;;;;;112.85;45.15;;;2.60;99.90;;;;;;5094789;28;20032;-88
2021/11/19 03:35:01;;;;;;;112.53;44.60;;;2.50;99.90;;;;;;5092942;28;20027;-87
2021/11/19 03:37:27;;;;;;;107.25;43.70;;;2.60;99.90;;;;;;5094243;28;20020;-87
2021/11/19 03:39:53;;;;;;;107.68;43.63;;;2.50;99.90;;;;;;5092768;28;20381;-87
2021/11/19 03:42:20;;;;;;;102.57;42.63;;;2.60;99.90;;;;;;5072918;28;20025;-87
2021/11/19 03:44:51;;;;;;;108.57;45.65;;;2.60;99.90;;;;;;5077696;28;20124;-87
2021/11/19 03:47:21;;;;;;;;;;;2.60;99.90;;;;;;5090848;28;20016;-87
2021/11/19 03:49:49;;;;;;;99.68;39.75;;;2.60;99.90;;;;;;5092682;28;19904;-87
2021/11/19 03:52:29;;;;;;;91.85;37.72;;;2.60;99.90;;;;;;5093199;28;20036;-88
2021/11/19 03:54:58;;;;;;;97.63;41.72;;;2.70;99.90;;;;;;5088949;28;20050;-87
2021/11/19 03:57:25;;;;;;;95.95;40.53;;;2.70;99.90;;;;;;5092817;28;20031;-88
2021/11/19 03:59:52;;;;;;;124.25;48.55;;;2.70;99.90;;;;;;5092815;28;20024;-88
2021/11/19 04:02:21;;;;;;;113.70;47.22;;;2.70;99.90;;;;;;5093969;28;20508;-87
2021/11/19 04:04:48;;;;;;;106.53;46.35;;;2.70;99.90;;;;;;5089110;28;20060;-88
2021/11/19 04:07:16;;;;;;;111.78;48.10;;;2.70;99.90;;;;;;5093333;28;20028;-87
2021/11/19 04:09:44;;;;;;;121.10;50.10;;;2.70;99.90;;;;;;5096461;28;20081;-87
2021/11/19 04:12:12;;;;;;;132.63;52.72;;;2.70;99.90;;;;;;5096279;28;20031;-89
2021/11/19 04:14:38;;;;;;;110.45;47.33;;;2.70;99.90;;;;;;5083026;28;20070;-88
2021/11/19 04:17:05;;;;;;;98.28;44.22;;;2.70;99.90;;;;;;5096201;28;20028;-87
2021/11/19 04:19:32;;;;;;;104.80;42.63;;;2.60;99.90;;;;;;5096007;28;20020;-87
2021/11/19 04:22:03;;;;;;;119.90;48.72;;;2.70;99.90;;;;;;5090312;28;20395;-87
2021/11/19 04:24:36;;;;;;;103.43;43.28;;;2.70;99.90;;;;;;5093532;28;20545;-87
2021/11/19 04:27:03;;;;;;;105.90;44.53;;;2.70;99.90;;;;;;5095916;28;20036;-87
2021/11/19 04:29:30;;;;;;;105.05;43.35;;;2.70;99.90;;;;;;5082548;28;20033;-87
2021/11/19 04:31:56;;;;;;;98.15;41.05;;;2.70;99.90;;;;;;5095858;28;20032;-87
2021/11/19 04:34:21;;;;;;;91.03;38.67;;;2.80;99.90;;;;;;5086379;28;20032;-87
2021/11/19 04:36:47;;;;;;;106.10;44.40;;;2.70;99.90;;;;;;5075572;28;20023;-87
2021/11/19 04:39:13;;;;;;;112.75;47.67;;;2.70;99.90;;;;;;5075718;28;20067;-87
2021/11/19 04:41:40;;;;;;;120.53;49.45;;;2.80;99.90;;;;;;5079825;28;20024;-88
2021/11/19 04:44:06;;;;;;;108.68;46.08;;;2.70;99.90;;;;;;5082910;28;20081;-88
2021/11/19 04:46:32;;;;;;;126.03;53.70;;;2.80;99.90;;;;;;5075500;28;20467;-88
2021/11/19 04:48:58;;;;;;;111.85;47.58;;;2.70;99.90;;;;;;5091178;28;20165;-88
2021/11/19 04:51:27;;;;;;;110.32;45.90;;;2.70;99.90;;;;;;5095185;28;20031;-88
2021/11/19 04:53:53;;;;;;;103.50;44.10;;;2.80;99.90;;;;;;5095094;28;20097;-88
2021/11/19 04:56:20;;;;;;;119.95;45.00;;;2.80;99.90;;;;;;5095304;28;20090;-84
2021/11/19 04:58:47;;;;;;;89.93;38.05;;;2.80;99.90;;;;;;5088673;28;20077;-84
2021/11/19 05:01:16;;;;;;;106.63;43.10;;;2.80;99.90;;;;;;5108454;28;20023;-84
2021/11/19 05:03:42;;;;;;;95.18;39.53;;;2.90;99.90;;;;;;5114373;28;20020;-85
2021/11/19 05:06:08;;;;;;;116.55;46.17;;;2.90;99.90;;;;;;5093943;28;20032;-84
2021/11/19 05:08:34;;;;;;;102.30;44.67;;;2.90;99.90;;;;;;5074626;28;20167;-87
2021/11/19 05:11:01;;;;;;;90.65;39.03;;;2.90;99.90;;;;;;5074297;28;20391;-86
2021/11/19 05:13:29;;;;;;;110.38;43.35;;;2.90;99.90;;;;;;5082318;28;20374;-87
2021/11/19 05:15:57;;;;;;;98.35;41.70;;;2.90;99.90;;;;;;5074774;28;20028;-84
2021/11/19 05:18:25;;;;;;;97.22;40.78;;;2.90;99.90;;;;;;5090223;28;20078;-84
2021/11/19 13:49:09;;;;;;;107.13;47.25;;;3.90;99.90;;;;;;5111820;27;20402;-80
2021/11/19 13:51:52;;;;;;;108.50;51.25;;;3.80;99.90;;;;;;5111336;28;20024;-80
2021/11/19 13:54:35;;;;;;;124.45;58.08;;;3.80;99.90;;;;;;5110029;28;20465;-80
2021/11/19 13:57:04;;;;;;;112.13;52.80;;;3.80;99.90;;;;;;5109957;28;20020;-80
2021/11/19 14:07:14;;;;;;;104.80;53.28;;;3.90;99.90;;;;;;5071631;28;20362;-81
2021/11/19 14:09:53;;;;;;;99.68;48.17;;;3.90;99.90;;;;;;5072226;28;20433;-82
2021/11/19 14:12:23;;;;;;;104.43;52.28;;;3.90;99.90;;;;;;5069676;28;20028;-82
2021/11/19 14:14:53;;;;;;;104.63;53.80;;;3.90;99.90;;;;;;5069438;28;20028;-82
2021/11/19 14:17:45;;;;;;;94.65;47.25;;;4.00;99.90;;;;;;5070722;28;20029;-81
2021/11/19 14:23:31;;;;;;;91.43;45.65;;;4.00;99.90;;;;;;5070946;28;20547;-82
2021/11/19 14:26:13;;;;;;;90.63;45.05;;;4.10;99.90;;;;;;5070535;28;20029;-82
2021/11/19 14:28:47;;;;;;;89.75;46.35;;;4.10;99.90;;;;;;5070479;28;20428;-82
2021/11/19 14:31:14;;;;;;;86.93;47.08;;;4.10;99.90;;;;;;5070694;28;20027;-82
2021/11/19 14:34:00;;;;;;;87.35;44.70;;;4.10;99.90;;;;;;5070234;28;20021;-81
2021/11/19 14:36:30;;;;;;;93.28;44.88;;;4.10;99.90;;;;;;5069109;28;20071;-82
2021/11/19 14:39:31;;;;;;;80.25;43.47;;;4.10;99.90;;;;;;5070200;28;20025;-81
2021/11/19 14:42:02;;;;;;;74.00;41.08;;;4.20;99.90;;;;;;5063268;28;20029;-81
2021/11/19 14:44:33;;;;;;;;;;;4.20;99.90;;;;;;5070611;28;20033;-81
2021/11/19 14:47:31;;;;;;;78.38;39.08;;;4.20;99.90;;;;;;5069007;28;19908;-81
2021/11/19 14:53:10;;;;;;;74.47;40.42;;;4.20;99.90;;;;;;5069978;28;20078;-81
2021/11/19 14:55:48;;;;;;;78.72;40.13;;;4.20;99.90;;;;;;5068661;28;20025;-81
2021/11/19 14:58:25;;;;;;;73.90;39.80;;;4.30;99.90;;;;;;5069770;28;20382;-81
2021/11/19 15:00:55;;;;;;;77.78;40.35;;;4.20;99.90;;;;;;5068760;28;20166;-81
2021/11/19 15:03:38;;;;;;;77.03;41.30;;;4.30;99.90;;;;;;5068451;28;20025;-81
2021/11/19 15:06:44;;;;;;;78.80;42.30;;;4.30;99.90;;;;;;5068161;28;20474;-81
2021/11/19 15:09:21;;;;;;;80.85;44.17;;;4.30;99.90;;;;;;5062541;28;20398;-81
2021/11/19 15:11:55;;;;;;;69.32;39.50;;;4.20;99.90;;;;;;5067868;28;20021;-82
2021/11/19 15:14:52;;;;;;;77.00;42.30;;;4.30;99.90;;;;;;5065563;28;20029;-81
2021/11/19 15:17:39;;;;;;;76.63;41.40;;;4.20;99.90;;;;;;5044373;28;20025;-81
2021/11/19 15:20:08;;;;;;;78.07;41.53;;;4.20;99.90;;;;;;5035034;28;20057;-80
2021/11/19 15:22:56;;;;;;;77.28;41.35;;;4.30;99.90;;;;;;5037278;28;20036;-80
2021/11/19 15:25:22;;;;;;;66.03;40.13;;;4.30;99.90;;;;;;5035684;28;20037;-85
2021/11/19 15:28:00;;;;;;;92.15;42.80;;;4.30;99.90;;;;;;5034930;28;20121;-81
2021/11/19 15:30:57;;;;;;;95.45;50.15;;;4.40;99.90;;;;;;5036240;28;20025;-80
2021/11/19 15:33:55;;;;;;;117.97;60.53;;;4.40;99.90;;;;;;5045503;28;20018;-81
2021/11/19 15:36:44;;;;;;;83.93;45.83;;;4.40;99.90;;;;;;5048284;28;20087;-82
2021/11/19 15:39:10;;;;;;;80.72;46.92;;;4.40;99.90;;;;;;5036080;28;20033;-80
2021/11/19 15:41:47;;;;;;;78.45;43.60;;;4.40;99.90;;;;;;5035843;28;20047;-83
2021/11/19 15:44:24;;;;;;;82.07;41.42;;;4.40;99.90;;;;;;5036988;28;20055;-83
2021/11/19 15:46:51;;;;;;;71.85;40.47;;;4.40;99.90;;;;;;5034459;28;20087;-81
2021/11/19 15:49:19;;;;;;;70.72;40.50;;;4.50;99.90;;;;;;5034634;28;20017;-81
2021/11/19 15:51:52;;;;;;;69.95;40.60;;;4.50;99.90;;;;;;5035775;28;20033;-82
2021/11/19 15:54:36;;;;;;;69.28;39.60;;;4.50;99.90;;;;;;5036048;28;20021;-81
2021/11/19 15:57:34;;;;;;;63.35;36.50;;;4.50;99.90;;;;;;5054197;28;20130;-80
2021/11/19 16:00:12;;;;;;;74.13;44.63;;;4.50;99.90;;;;;;5054328;28;20032;-84
2021/11/19 16:02:57;;;;;;;72.60;41.10;;;4.50;99.90;;;;;;5054144;28;20063;-80
2021/11/19 16:05:46;;;;;;;67.00;38.30;;;4.50;99.90;;;;;;5053864;28;20490;-86
2021/11/19 16:08:40;;;;;;;70.95;38.72;;;4.50;99.90;;;;;;5050507;28;20041;-84
2021/11/19 16:11:43;;;;;;;72.05;41.75;;;4.50;99.90;;;;;;5054085;28;20027;-79
2021/11/19 16:14:18;;;;;;;80.30;43.58;;;4.40;99.90;;;;;;5038462;28;20029;-78
2021/11/19 16:16:58;;;;;;;77.43;43.70;;;4.50;99.90;;;;;;5036547;28;20483;-80
2021/11/19 16:19:25;;;;;;;66.32;40.08;;;4.50;99.90;;;;;;5035274;28;20022;-80
2021/11/19 16:21:57;;;;;;;72.65;42.60;;;4.50;99.90;;;;;;5033792;28;20082;-79
2021/11/19 16:24:27;;;;;;;65.88;38.47;;;4.50;99.90;;;;;;5032045;28;20513;-79
2021/11/19 16:27:02;;;;;;;63.33;38.05;;;4.50;99.90;;;;;;5033059;28;20467;-79
2021/11/19 16:29:29;;;;;;;63.10;36.42;;;4.50;99.90;;;;;;5030869;28;20032;-79
2021/11/19 16:31:56;;;;;;;57.55;35.17;;;4.50;99.90;;;;;;5031837;28;20057;-79
2021/11/19 16:34:23;;;;;;;60.58;35.55;;;4.50;99.90;;;;;;5033360;28;20029;-79
2021/11/19 16:36:51;;;;;;;58.17;34.17;;;4.60;99.90;;;;;;5032323;28;20079;-79
2021/11/19 16:39:19;;;;;;;62.03;36.97;;;4.60;99.90;;;;;;5032377;28;20462;-79
2021/11/19 16:41:46;;;;;;;71.22;39.72;;;4.60;99.90;;;;;;5033535;28;20091;-79
2021/11/19 16:44:12;;;;;;;75.07;40.00;;;4.60;99.90;;;;;;5033348;28;20083;-78
2021/11/19 16:46:40;;;;;;;73.13;39.70;;;4.60;99.90;;;;;;5031991;28;20033;-79
2021/11/19 16:49:15;;;;;;;78.68;43.90;;;4.60;99.90;;;;;;5032072;28;20056;-78
2021/11/19 16:51:48;;;;;;;73.00;41.55;;;4.70;99.90;;;;;;5033278;28;20017;-79
2021/11/19 16:54:14;;;;;;;77.32;43.50;;;4.70;99.90;;;;;;5032001;28;20022;-79
2021/11/19 16:56:42;;;;;;;91.60;51.42;;;4.60;99.90;;;;;;5033446;28;20509;-79
2021/11/19 16:59:08;;;;;;;78.55;43.35;;;4.70;99.90;;;;;;5033314;28;20029;-79
2021/11/19 17:01:36;;;;;;;82.97;45.50;;;4.70;99.90;;;;;;5031832;28;20096;-78
2021/11/19 17:04:02;;;;;;;78.80;48.45;;;4.70;99.90;;;;;;5031778;28;20029;-78
2021/11/19 17:06:30;;;;;;;77.60;44.30;;;4.70;99.90;;;;;;5032549;28;20060;-79
2021/11/19 17:08:56;;;;;;;66.85;38.83;;;4.70;99.90;;;;;;5031804;28;20049;-79
2021/11/19 17:11:24;;;;;;;66.32;37.88;;;4.70;99.90;;;;;;5032896;28;20035;-79
2021/11/19 17:13:51;;;;;;;62.65;35.85;;;4.80;99.90;;;;;;5032887;28;20076;-79
2021/11/19 17:16:20;;;;;;;63.78;37.10;;;4.80;99.90;;;;;;5031526;28;20383;-79
2021/11/19 17:18:48;;;;;;;65.77;37.63;;;4.80;99.90;;;;;;5033447;28;20475;-79
2021/11/19 17:21:16;;;;;;;62.58;34.70;;;4.80;99.90;;;;;;5033323;28;20673;-79
2021/11/19 17:23:43;;;;;;;58.78;33.78;;;4.80;99.90;;;;;;5033175;28;20495;-79
2021/11/19 17:26:09;;;;;;;62.28;34.83;;;4.80;99.90;;;;;;5033383;28;20507;-79
2021/11/19 17:28:47;;;;;;;56.15;33.40;;;4.80;99.90;;;;;;5033406;28;20044;-80
2021/11/19 17:31:14;;;;;;;67.63;38.63;;;4.90;99.90;;;;;;5033560;28;20106;-80
2021/11/19 17:33:41;;;;;;;57.63;33.75;;;4.90;99.90;;;;;;5033077;28;20021;-80
2021/11/19 17:36:08;;;;;;;55.40;33.97;;;4.90;99.90;;;;;;5032131;28;20022;-80
2021/11/19 17:38:34;;;;;;;51.10;29.90;;;4.90;99.90;;;;;;5048360;28;20021;-79
2021/11/19 17:41:00;;;;;;;51.22;30.40;;;4.90;99.90;;;;;;5033472;28;20028;-78
2021/11/19 17:43:27;;;;;;;52.20;30.52;;;4.90;99.90;;;;;;5033262;28;20022;-79
2021/11/19 17:45:59;;;;;;;54.05;31.90;;;4.90;99.90;;;;;;5032034;28;20025;-79
2021/11/19 17:48:29;;;;;;;55.70;31.63;;;5.00;99.90;;;;;;5033212;28;20018;-79
2021/11/19 17:50:57;;;;;;;49.55;29.52;;;5.00;99.90;;;;;;5033450;28;20033;-79
2021/11/19 17:53:23;;;;;;;55.67;31.73;;;5.00;99.90;;;;;;5032142;28;20120;-79
2021/11/19 17:55:56;;;;;;;59.28;32.03;;;5.00;99.90;;;;;;5031905;28;20022;-79
2021/11/19 17:58:24;;;;;;;59.17;32.72;;;5.00;99.90;;;;;;5031944;28;20029;-79
2021/11/19 18:01:07;;;;;;;56.95;32.35;;;5.00;99.90;;;;;;5032906;28;20066;-79
2021/11/19 18:03:33;;;;;;;58.45;32.40;;;5.00;99.90;;;;;;5033133;28;20021;-79
2021/11/19 18:06:01;;;;;;;65.05;33.85;;;5.00;99.90;;;;;;5032671;28;20484;-79
2021/11/19 18:08:30;;;;;;;55.40;32.17;;;5.00;99.90;;;;;;5031518;28;20113;-78
2021/11/19 18:10:59;;;;;;;58.70;33.10;;;5.00;99.90;;;;;;5031875;28;20511;-78
2021/11/19 18:13:25;;;;;;;58.92;33.25;;;4.90;99.90;;;;;;5031268;28;20291;-78
2021/11/19 18:15:53;;;;;;;53.78;31.15;;;5.00;99.90;;;;;;5032139;28;20022;-78
2021/11/19 18:18:19;;;;;;;68.85;40.72;;;5.00;99.90;;;;;;5031891;28;20029;-80
2021/11/19 18:20:51;;;;;;;63.00;38.45;;;5.00;99.90;;;;;;5031646;28;20025;-78
2021/11/19 18:23:16;;;;;;;83.20;46.85;;;5.00;99.90;;;;;;5033075;28;20532;-78
2021/11/19 18:25:43;;;;;;;97.75;49.15;;;5.00;99.90;;;;;;5032961;28;20108;-79
2021/11/19 18:28:09;;;;;;;77.82;41.35;;;5.00;99.90;;;;;;5031897;28;20103;-78
2021/11/19 18:30:51;;;;;;;82.18;47.42;;;5.00;99.90;;;;;;5031734;28;20032;-79
2021/11/19 18:33:17;;;;;;;94.07;49.25;;;5.00;99.90;;;;;;5031643;28;20026;-80
2021/11/19 18:35:44;;;;;;;99.15;54.50;;;5.00;99.90;;;;;;5031752;28;20028;-78
2021/11/19 18:38:18;;;;;;;74.20;42.10;;;5.10;99.90;;;;;;5032084;28;20173;-79
2021/11/19 18:40:49;;;;;;;71.65;43.75;;;5.10;99.90;;;;;;5033144;28;20115;-79
2021/11/19 18:43:16;;;;;;;69.60;39.65;;;5.10;99.90;;;;;;5032829;28;20033;-79
2021/11/19 18:45:44;;;;;;;64.18;35.35;;;5.00;99.90;;;;;;5031558;28;20033;-79
2021/11/19 18:48:10;;;;;;;58.58;32.22;;;5.10;99.90;;;;;;5037724;28;20021;-79
2021/11/19 18:50:37;;;;;;;52.25;31.58;;;5.10;99.90;;;;;;5051441;28;20021;-81
2021/11/19 18:53:04;;;;;;;51.63;29.48;;;5.10;99.90;;;;;;5054237;28;20429;-80
2021/11/19 18:55:32;;;;;;;54.53;32.17;;;5.10;99.90;;;;;;5056773;28;20055;-80
2021/11/19 18:58:00;;;;;;;66.90;37.63;;;5.10;99.90;;;;;;5056693;28;20021;-80
2021/11/19 19:00:32;;;;;;;68.22;40.33;;;5.10;99.90;;;;;;5056644;28;20027;-80
2021/11/19 19:02:58;;;;;;;74.03;41.67;;;5.10;99.90;;;;;;5055067;28;20025;-81
2021/11/19 19:05:31;;;;;;;124.53;64.22;;;5.10;99.90;;;;;;5054175;28;20041;-80
2021/11/19 19:08:00;;;;;;;106.95;51.90;;;5.10;99.90;;;;;;5035353;28;20033;-80
2021/11/19 19:10:27;;;;;;;97.78;49.67;;;5.20;99.90;;;;;;5052261;28;20025;-80
2021/11/19 19:12:53;;;;;;;155.52;78.68;;;5.20;99.90;;;;;;5055172;28;20028;-80
2021/11/19 19:15:21;;;;;;;147.00;81.43;;;5.20;99.90;;;;;;5055073;28;20501;-80
2021/11/19 19:17:50;;;;;;;129.07;65.80;;;5.20;99.90;;;;;;5053382;28;20036;-80
2021/11/19 19:20:25;;;;;;;179.07;102.65;;;5.20;99.90;;;;;;5055106;28;20036;-80
2021/11/19 19:22:53;;;;;;;114.93;63.88;;;5.20;99.90;;;;;;5054987;28;20497;-80
2021/11/19 19:25:19;;;;;;;91.55;48.03;;;5.20;99.90;;;;;;5050011;28;20034;-80
2021/11/19 19:27:46;;;;;;;84.97;42.85;;;5.20;99.90;;;;;;5054355;28;20029;-80
2021/11/19 19:30:35;;;;;;;83.63;42.92;;;5.20;99.90;;;;;;5055944;28;20092;-80
2021/11/19 19:33:05;;;;;;;78.35;40.45;;;5.30;99.90;;;;;;5034266;28;20033;-80
2021/11/19 19:35:43;;;;;;;75.22;40.05;;;5.30;99.90;;;;;;5034607;28;20053;-81
2021/11/19 19:38:24;;;;;;;103.95;57.03;;;5.30;99.90;;;;;;5035817;28;20163;-81
2021/11/19 19:40:55;;;;;;;67.82;38.90;;;5.30;99.90;;;;;;5054613;28;20025;-80
2021/11/19 19:43:23;;;;;;;63.60;35.13;;;5.30;99.90;;;;;;5056045;28;20044;-79
2021/11/19 19:45:52;;;;;;;66.10;35.28;;;5.30;99.90;;;;;;5055483;28;20482;-80
2021/11/19 19:48:31;;;;;;;68.32;36.92;;;5.40;99.90;;;;;;5042715;28;20373;-80
2021/11/19 19:50:58;;;;;;;61.72;34.38;;;5.40;99.90;;;;;;5034361;28;20025;-81
2021/11/19 19:53:27;;;;;;;61.30;33.40;;;5.30;99.90;;;;;;5041836;28;20467;-79
2021/11/19 19:55:54;;;;;;;68.60;38.85;;;5.30;99.90;;;;;;5042345;28;20060;-79
2021/11/19 19:58:21;;;;;;;94.20;45.50;;;5.40;99.90;;;;;;5054312;28;20078;-80
2021/11/19 20:00:51;;;;;;;112.57;72.82;;;5.40;99.90;;;;;;5053334;28;20124;-80
2021/11/19 20:03:19;;;;;;;151.70;79.95;;;5.50;99.90;;;;;;5055087;28;20103;-80
2021/11/19 20:05:46;;;;;;;94.75;48.92;;;5.50;99.90;;;;;;5053258;28;20049;-80
2021/11/19 20:08:11;;;;;;;77.65;41.22;;;5.50;99.90;;;;;;5053902;28;20033;-79
2021/11/19 20:10:38;;;;;;;67.82;36.83;;;5.50;99.90;;;;;;5055231;28;20551;-80
2021/11/19 20:13:05;;;;;;;82.53;47.40;;;5.50;99.90;;;;;;5053905;28;20036;-79
2021/11/19 20:15:35;;;;;;;67.18;39.88;;;5.60;99.90;;;;;;5055095;28;20025;-80
2021/11/19 20:18:02;;;;;;;63.05;35.83;;;5.60;99.90;;;;;;5054921;28;20139;-79
2021/11/19 20:20:31;;;;;;;60.53;35.10;;;5.60;99.90;;;;;;5053734;28;20044;-78
2021/11/19 20:22:59;;;;;;;60.83;33.63;;;5.60;99.90;;;;;;5053790;28;20032;-81
2021/11/19 20:25:29;;;;;;;92.90;55.45;;;5.60;99.90;;;;;;5053545;28;20467;-81
2021/11/19 20:27:56;;;;;;;91.88;49.55;;;5.60;99.90;;;;;;5054903;28;20053;-81
2021/11/19 20:30:26;;;;;;;87.32;44.08;;;5.70;99.90;;;;;;5053214;28;20040;-81
2021/11/19 20:32:52;;;;;;;73.82;39.95;;;5.60;99.90;;;;;;5053463;28;20029;-80
2021/11/19 20:35:25;;;;;;;55.88;31.55;;;5.70;99.90;;;;;;5054740;28;20032;-81
2021/11/19 20:37:51;;;;;;;60.08;33.40;;;5.70;99.90;;;;;;5054653;28;20021;-81
2021/11/19 20:40:22;;;;;;;61.33;34.53;;;5.70;99.90;;;;;;5053345;28;20037;-81
2021/11/19 20:42:48;;;;;;;55.28;31.52;;;5.70;99.90;;;;;;5053302;28;20079;-81
2021/11/19 20:45:22;;;;;;;59.67;32.72;;;5.70;99.90;;;;;;5052848;28;20025;-81
2021/11/19 20:47:50;;;;;;;66.70;35.50;;;5.80;99.90;;;;;;5052953;28;20033;-80
2021/11/19 20:50:19;;;;;;;61.75;34.75;;;5.80;99.90;;;;;;5054394;28;20047;-81
2021/11/19 20:52:48;;;;;;;69.47;36.20;;;5.80;99.90;;;;;;5053050;28;20430;-81
2021/11/19 20:55:25;;;;;;;71.18;38.80;;;5.80;99.90;;;;;;5054293;28;20101;-82
2021/11/19 20:57:51;;;;;;;64.82;35.03;;;5.80;99.90;;;;;;5054014;28;20029;-80
2021/11/19 21:00:19;;;;;;;67.50;35.40;;;5.90;99.90;;;;;;5054148;28;20025;-80
2021/11/19 21:02:45;;;;;;;54.90;31.80;;;5.80;99.90;;;;;;5052629;28;20029;-80
2021/11/19 21:05:19;;;;;;;58.13;32.05;;;5.90;99.90;;;;;;5052533;28;20476;-80
2021/11/19 21:07:45;;;;;;;56.72;31.95;;;5.90;99.90;;;;;;5054110;28;20017;-80
2021/11/19 21:10:14;;;;;;;61.45;32.58;;;5.90;99.90;;;;;;5053310;28;20021;-80
2021/11/19 21:12:41;;;;;;;60.38;32.15;;;5.90;99.90;;;;;;5053241;28;20017;-81
2021/11/19 21:15:15;;;;;;;60.50;32.50;;;5.90;99.90;;;;;;5051310;28;20025;-81
2021/11/19 21:17:42;;;;;;;67.50;35.47;;;5.90;99.90;;;;;;5052865;28;20024;-80
2021/11/19 21:20:13;;;;;;;133.55;79.85;;;6.00;99.90;;;;;;5033804;28;20025;-79
2021/11/19 21:22:39;;;;;;;;;;;6.00;99.90;;;;;;5042101;28;20135;-80
2021/11/19 21:25:07;;;;;;;79.72;45.85;;;6.00;99.90;;;;;;5052508;28;20330;-80
2021/11/19 21:27:33;;;;;;;64.80;35.25;;;6.00;99.90;;;;;;5053469;28;20048;-80
2021/11/19 21:29:59;;;;;;;88.88;51.15;;;6.00;99.90;;;;;;5053490;28;20021;-80
2021/11/19 21:32:29;;;;;;;114.53;68.07;;;6.10;99.90;;;;;;5053727;28;20356;-80
2021/11/19 21:34:56;;;;;;;70.45;39.08;;;6.10;99.90;;;;;;5052161;28;20386;-80
2021/11/19 21:37:23;;;;;;;55.80;31.52;;;6.10;99.90;;;;;;5053334;28;20032;-80